Time;durP1;ratioP1;P1;durP2;ratioP2;P2;SDS_P1;SDS_P2;PMS_P1;PMS_P2;Temp;Humidity;BMP_temperature;BMP_pressure;BME280_temperature;BME280_humidity;BME280_pressure;Samples;Min_cycle;Max_cycle;Signal;HPM_P1;HPM_P2
2022/11/17 00:00:21;;;;;;;7.30;2.80;;;10.30;99.90;;;;;;5064559;28;20430;-74
2022/11/17 00:03:06;;;;;;;8.93;3.27;;;10.30;99.90;;;;;;5070952;28;20528;-75
2022/11/17 00:05:52;;;;;;;5.90;2.43;;;10.20;99.90;;;;;;5066927;28;20504;-74
2022/11/17 00:08:37;;;;;;;6.53;2.83;;;10.30;99.90;;;;;;5066032;28;20890;-74
2022/11/17 00:11:23;;;;;;;6.00;2.70;;;10.20;99.90;;;;;;5060996;28;20501;-73
2022/11/17 00:17:28;;;;;;;3.70;2.80;;;10.30;99.90;;;;;;5005828;28;21046;-74
2022/11/17 00:23:17;;;;;;;8.37;2.30;;;10.40;99.90;;;;;;5055598;28;20534;-74
2022/11/17 00:26:03;;;;;;;6.37;2.40;;;10.40;99.90;;;;;;5065407;28;20421;-74
2022/11/17 00:28:51;;;;;;;3.90;2.40;;;10.40;99.90;;;;;;5064196;28;20582;-74
2022/11/17 00:34:41;;;;;;;5.00;2.30;;;10.40;99.90;;;;;;5066473;28;20405;-74
2022/11/17 00:37:28;;;;;;;6.63;2.20;;;10.40;99.90;;;;;;5064845;28;20509;-74
2022/11/17 00:40:14;;;;;;;5.07;2.20;;;10.50;99.90;;;;;;5061119;28;20406;-74
2022/11/17 00:42:59;;;;;;;3.67;2.30;;;10.60;99.90;;;;;;5070519;28;20810;-74
2022/11/17 00:45:45;;;;;;;3.93;2.07;;;10.60;99.90;;;;;;5067159;28;20481;-74
2022/11/17 00:48:30;;;;;;;10.93;2.57;;;10.50;99.90;;;;;;5064100;28;20436;-74
2022/11/17 00:51:18;;;;;;;4.97;2.90;;;10.60;99.90;;;;;;5071735;28;21013;-74
2022/11/17 00:54:04;;;;;;;7.23;2.40;;;10.50;99.90;;;;;;5068720;28;20467;-74
2022/11/17 00:56:50;;;;;;;6.43;2.27;;;10.60;99.90;;;;;;5061694;28;20447;-74
2022/11/17 00:59:35;;;;;;;4.10;2.37;;;10.50;99.90;;;;;;5069198;28;20508;-74
2022/11/17 01:02:21;;;;;;;7.63;2.70;;;10.60;99.90;;;;;;5063773;28;20479;-74
2022/11/17 01:05:07;;;;;;;3.83;2.60;;;10.60;99.90;;;;;;5067791;28;20604;-74
2022/11/17 01:07:54;;;;;;;13.93;2.47;;;10.60;99.90;;;;;;5067365;28;20446;-74
2022/11/17 01:10:40;;;;;;;8.23;2.40;;;10.50;99.90;;;;;;5069345;28;20578;-74
2022/11/17 01:13:26;;;;;;;6.43;2.20;;;10.50;99.90;;;;;;5066335;28;20462;-74
2022/11/17 01:16:14;;;;;;;5.00;1.83;;;10.50;99.90;;;;;;5066785;28;20912;-74
2022/11/17 01:19:01;;;;;;;10.90;2.30;;;10.50;99.90;;;;;;5067400;28;20450;-73
2022/11/17 01:21:47;;;;;;;13.83;2.77;;;10.50;99.90;;;;;;5071150;28;20633;-74
2022/11/17 01:24:33;;;;;;;4.30;2.40;;;10.40;99.90;;;;;;5069080;28;20536;-74
2022/11/17 01:27:19;;;;;;;11.67;2.30;;;10.40;99.90;;;;;;5066374;28;20470;-74
2022/11/17 01:30:05;;;;;;;7.67;2.70;;;10.40;99.90;;;;;;5066699;28;20424;-74
2022/11/17 01:32:51;;;;;;;7.33;2.87;;;10.50;99.90;;;;;;5064154;28;20948;-74
2022/11/17 01:35:36;;;;;;;6.83;2.37;;;10.50;99.90;;;;;;5066717;28;20430;-74
2022/11/17 01:38:22;;;;;;;5.50;3.33;;;10.50;99.90;;;;;;5066493;28;20427;-74
2022/11/17 01:41:15;;;;;;;3.67;2.70;;;10.60;99.90;;;;;;5077967;28;20477;-74
2022/11/17 01:44:34;;;;;;;7.47;3.10;;;10.50;99.90;;;;;;5063237;28;20466;-74
2022/11/17 01:47:23;;;;;;;7.97;2.70;;;10.60;99.90;;;;;;5062133;28;20443;-74
2022/11/17 01:50:19;;;;;;;4.13;2.37;;;10.70;99.90;;;;;;5069677;28;20816;-74
2022/11/17 01:53:10;;;;;;;3.83;2.50;;;10.80;99.90;;;;;;5061301;28;20466;-74
2022/11/17 01:56:02;;;;;;;4.33;2.73;;;10.80;99.90;;;;;;5067892;28;20933;-74
2022/11/17 01:58:56;;;;;;;5.90;1.90;;;10.70;99.90;;;;;;5076793;28;20429;-75
2022/11/17 02:01:54;;;;;;;7.57;2.27;;;10.80;99.90;;;;;;5068733;28;20444;-74
2022/11/17 02:04:44;;;;;;;7.77;3.50;;;10.80;99.90;;;;;;5069666;28;20442;-74
2022/11/17 02:07:32;;;;;;;4.83;2.33;;;10.90;99.90;;;;;;5063978;28;20553;-74
2022/11/17 02:10:18;;;;;;;7.00;2.00;;;10.90;99.90;;;;;;5076461;28;20887;-74
2022/11/17 02:13:04;;;;;;;4.57;1.80;;;10.90;99.90;;;;;;5074614;28;20465;-73
2022/11/17 02:15:51;;;;;;;4.03;2.10;;;10.80;99.90;;;;;;5065948;28;20922;-74
2022/11/17 02:18:36;;;;;;;6.60;2.57;;;10.80;99.90;;;;;;5073244;28;20415;-74
2022/11/17 02:22:08;;;;;;;9.00;2.90;;;10.80;99.90;;;;;;5057406;28;20516;-73
2022/11/17 02:25:15;;;;;;;5.77;2.83;;;10.80;99.90;;;;;;5068582;28;20509;-74
2022/11/17 02:28:10;;;;;;;7.10;2.23;;;10.90;99.90;;;;;;5074828;28;20432;-74
2022/11/17 02:31:08;;;;;;;5.00;2.20;;;10.80;99.90;;;;;;5072899;28;20522;-74
2022/11/17 02:33:56;;;;;;;3.90;2.20;;;10.90;99.90;;;;;;5066163;28;20466;-73
2022/11/17 02:36:46;;;;;;;3.83;1.90;;;10.90;99.90;;;;;;5070690;28;20450;-74
2022/11/17 02:39:38;;;;;;;3.03;1.83;;;10.90;99.90;;;;;;5071148;28;20435;-74
2022/11/17 02:45:38;;;;;;;4.60;2.20;;;11.10;99.90;;;;;;5073935;28;20792;-74
2022/11/17 02:48:29;;;;;;;7.53;1.90;;;11.10;99.90;;;;;;5065941;28;20675;-73
2022/11/17 02:51:20;;;;;;;6.40;1.90;;;11.10;99.90;;;;;;5086470;28;20405;-74
2022/11/17 02:54:07;;;;;;;6.53;2.20;;;11.10;99.90;;;;;;5064468;28;20532;-74
2022/11/17 02:56:53;;;;;;;3.97;1.80;;;11.10;99.90;;;;;;5074500;28;20488;-74
2022/11/17 02:59:46;;;;;;;3.57;1.60;;;11.10;99.90;;;;;;5062503;28;20437;-75
2022/11/17 03:02:56;;;;;;;4.53;2.23;;;11.10;99.90;;;;;;5065918;28;20626;-74
2022/11/17 03:05:54;;;;;;;2.60;1.70;;;11.00;99.90;;;;;;5074707;28;20446;-74
2022/11/17 03:08:54;;;;;;;4.43;1.70;;;11.00;99.90;;;;;;5073443;28;20450;-74
2022/11/17 03:11:45;;;;;;;2.70;1.80;;;11.00;99.90;;;;;;5078321;28;20446;-74
2022/11/17 03:14:38;;;;;;;2.40;1.70;;;11.10;99.90;;;;;;5070502;28;21004;-74
2022/11/17 03:17:30;;;;;;;7.83;1.77;;;11.20;99.90;;;;;;5071627;28;20435;-74
2022/11/17 03:20:21;;;;;;;5.30;1.40;;;11.20;99.90;;;;;;5089982;28;20480;-74
2022/11/17 03:23:11;;;;;;;4.17;2.30;;;11.20;99.90;;;;;;5065352;28;20528;-75
2022/11/17 03:25:59;;;;;;;2.43;1.40;;;11.30;99.90;;;;;;5073025;28;20430;-74
2022/11/17 03:28:46;;;;;;;4.27;1.90;;;11.30;99.90;;;;;;5064036;28;21069;-74
2022/11/17 03:31:33;;;;;;;2.83;1.53;;;11.30;99.90;;;;;;5056174;28;20414;-73
2022/11/17 03:34:22;;;;;;;3.50;1.60;;;11.50;99.90;;;;;;5068653;28;20570;-74
2022/11/17 03:37:12;;;;;;;2.17;1.37;;;11.50;99.90;;;;;;5070444;28;20565;-74
2022/11/17 03:40:02;;;;;;;2.80;1.23;;;11.60;99.90;;;;;;5070074;28;20422;-74
2022/11/17 03:42:52;;;;;;;3.37;1.40;;;11.70;99.90;;;;;;5070346;28;20858;-76
2022/11/17 03:45:40;;;;;;;5.57;2.63;;;11.80;99.90;;;;;;5072670;28;20475;-75
2022/11/17 03:48:33;;;;;;;4.87;1.50;;;11.80;99.90;;;;;;5065450;28;20548;-74
2022/11/17 03:51:21;;;;;;;2.27;1.60;;;11.90;99.90;;;;;;5069034;28;20716;-74
2022/11/17 03:54:09;;;;;;;2.53;1.70;;;11.90;99.90;;;;;;5073389;28;20448;-74
2022/11/17 03:57:01;;;;;;;3.37;1.80;;;11.90;99.90;;;;;;5078748;28;20485;-74
2022/11/17 03:59:53;;;;;;;4.23;1.33;;;11.90;99.90;;;;;;5064374;28;20477;-74
2022/11/17 04:02:41;;;;;;;4.60;2.00;;;11.90;99.90;;;;;;5064051;28;20542;-75
2022/11/17 04:05:27;;;;;;;10.87;1.90;;;12.00;99.90;;;;;;5070869;28;20442;-74
2022/11/17 04:08:13;;;;;;;5.13;2.00;;;11.90;99.90;;;;;;5084373;28;20400;-73
2022/11/17 04:17:07;;;;;;;3.43;1.23;;;11.80;99.90;;;;;;5066741;28;20526;-74
2022/11/17 04:19:52;;;;;;;4.07;1.73;;;11.80;99.90;;;;;;5076630;28;20435;-74
2022/11/17 04:22:38;;;;;;;2.93;1.53;;;11.80;99.90;;;;;;5069077;28;20832;-73
2022/11/17 04:28:37;;;;;;;2.83;1.87;;;11.70;99.90;;;;;;5076449;28;20499;-73
2022/11/17 04:31:25;;;;;;;3.90;1.80;;;11.70;99.90;;;;;;5078153;28;20976;-73
2022/11/17 04:34:11;;;;;;;3.70;1.67;;;11.70;99.90;;;;;;5063290;28;20441;-74
2022/11/17 04:36:57;;;;;;;6.77;1.73;;;11.70;99.90;;;;;;5071536;28;20442;-74
2022/11/17 04:39:42;;;;;;;4.93;1.87;;;11.70;99.90;;;;;;5077866;28;20429;-74
2022/11/17 04:42:28;;;;;;;4.93;1.90;;;11.60;99.90;;;;;;5064331;28;20522;-74
2022/11/17 04:45:14;;;;;;;1.90;1.30;;;11.70;99.90;;;;;;5077141;28;20436;-73
2022/11/17 04:48:00;;;;;;;4.37;1.90;;;11.60;99.90;;;;;;5086061;28;20428;-74
2022/11/17 04:50:46;;;;;;;3.80;1.83;;;11.50;99.90;;;;;;5075353;28;20568;-75
2022/11/17 04:53:31;;;;;;;2.60;1.57;;;11.50;99.90;;;;;;5079781;28;21004;-73
2022/11/17 04:56:18;;;;;;;3.27;2.40;;;11.50;99.90;;;;;;5080722;28;20962;-74
2022/11/17 04:59:05;;;;;;;4.10;2.20;;;11.50;99.90;;;;;;5070223;28;20393;-75
2022/11/17 05:01:52;;;;;;;5.50;2.20;;;11.50;99.90;;;;;;5070440;28;20488;-73
2022/11/17 05:07:37;;;;;;;5.80;2.27;;;11.50;99.90;;;;;;5068594;28;20442;-73
2022/11/17 05:13:20;;;;;;;3.40;2.03;;;11.40;99.90;;;;;;5057922;28;20930;-74
2022/11/17 05:13:27;;;;;;;3.30;2.30;;;11.40;99.90;;;;;;5066662;28;20988;-74
2022/11/17 05:19:19;;;;;;;2.93;1.60;;;11.30;99.90;;;;;;5073006;28;20434;-76
2022/11/17 05:23:52;;;;;;;4.20;1.70;;;11.10;99.90;;;;;;5070460;28;20545;-73
2022/11/17 05:25:10;;;;;;;3.00;1.53;;;10.90;99.90;;;;;;5085542;28;20427;-74
2022/11/17 05:27:56;;;;;;;3.93;2.17;;;10.90;99.90;;;;;;5074443;28;20485;-74
2022/11/17 05:30:42;;;;;;;3.90;1.80;;;10.70;99.90;;;;;;5068653;28;20421;-73
2022/11/17 05:33:28;;;;;;;3.90;1.90;;;10.60;99.90;;;;;;5070215;28;20864;-73
2022/11/17 05:36:15;;;;;;;2.27;1.63;;;10.60;99.90;;;;;;5067938;28;20500;-74
2022/11/17 05:39:01;;;;;;;2.77;1.77;;;10.50;99.90;;;;;;5067877;28;20413;-73
2022/11/17 05:41:47;;;;;;;3.53;1.43;;;10.50;99.90;;;;;;5080800;28;20471;-73
2022/11/17 05:44:32;;;;;;;3.03;1.90;;;10.50;99.90;;;;;;5066460;28;20413;-74
2022/11/17 05:47:18;;;;;;;4.00;1.70;;;10.50;99.90;;;;;;5079785;28;20516;-74
2022/11/17 05:50:03;;;;;;;3.07;2.30;;;10.50;99.90;;;;;;5065698;28;21031;-73
2022/11/17 05:52:50;;;;;;;7.23;5.77;;;10.50;99.90;;;;;;5068773;28;20541;-73
2022/11/17 05:55:36;;;;;;;4.00;2.33;;;10.50;99.90;;;;;;5076166;28;20457;-74
2022/11/17 05:58:25;;;;;;;6.83;2.70;;;10.40;99.90;;;;;;5070242;28;21141;-72
2022/11/17 06:01:13;;;;;;;3.73;2.20;;;10.50;99.90;;;;;;5062761;28;20474;-74
2022/11/17 06:04:02;;;;;;;4.90;1.90;;;10.50;99.90;;;;;;5073852;28;20485;-74
2022/11/17 06:06:48;;;;;;;3.90;1.70;;;10.50;99.90;;;;;;5085618;28;20430;-74
2022/11/17 06:09:39;;;;;;;2.13;1.40;;;10.50;99.90;;;;;;5070565;28;20486;-73
2022/11/17 06:12:24;;;;;;;5.40;1.80;;;10.50;99.90;;;;;;5075515;28;20441;-75
2022/11/17 06:15:10;;;;;;;3.30;2.23;;;10.60;99.90;;;;;;5086739;28;20430;-75
2022/11/17 06:18:00;;;;;;;2.70;1.37;;;10.60;99.90;;;;;;5060981;28;20426;-73
2022/11/17 06:20:50;;;;;;;2.87;1.60;;;10.70;99.90;;;;;;5065950;28;20457;-73
2022/11/17 06:23:37;;;;;;;2.43;1.53;;;10.80;99.90;;;;;;5075124;28;20478;-73
2022/11/17 06:26:23;;;;;;;2.10;1.30;;;10.90;99.90;;;;;;5077816;28;20958;-73
2022/11/17 06:29:11;;;;;;;3.27;1.10;;;11.10;99.90;;;;;;5072121;28;20955;-74
2022/11/17 06:31:58;;;;;;;2.20;1.00;;;11.20;99.90;;;;;;5062382;28;20446;-73
2022/11/17 06:34:45;;;;;;;2.80;1.60;;;11.40;99.90;;;;;;5071862;28;20759;-74
2022/11/17 06:37:30;;;;;;;2.07;1.10;;;11.40;99.90;;;;;;5074534;28;20425;-73
2022/11/17 06:40:16;;;;;;;4.33;1.67;;;11.40;99.90;;;;;;5066237;28;20424;-74
2022/11/17 06:43:07;;;;;;;4.20;1.73;;;11.40;99.90;;;;;;5067826;28;20509;-73
2022/11/17 06:45:52;;;;;;;6.70;1.30;;;11.40;99.90;;;;;;5075156;28;20414;-73
2022/11/17 06:48:38;;;;;;;6.80;1.37;;;11.50;99.90;;;;;;5060574;28;20455;-74
2022/11/17 06:51:23;;;;;;;2.60;1.40;;;11.50;99.90;;;;;;5068415;28;20780;-73
2022/11/17 06:54:09;;;;;;;3.63;1.37;;;11.60;99.90;;;;;;5072680;28;20827;-73
2022/11/17 06:56:54;;;;;;;2.30;1.23;;;11.60;99.90;;;;;;5064108;28;20968;-74
2022/11/17 06:59:41;;;;;;;3.00;1.30;;;11.70;99.90;;;;;;5068594;28;20538;-74
2022/11/17 07:02:27;;;;;;;3.50;1.10;;;11.70;99.90;;;;;;5067246;28;20624;-73
2022/11/17 07:05:13;;;;;;;2.60;1.10;;;11.80;99.90;;;;;;5078431;28;20952;-73
2022/11/17 07:07:59;;;;;;;3.00;1.40;;;11.80;99.90;;;;;;5058902;28;20949;-76
2022/11/17 07:10:44;;;;;;;6.73;1.37;;;11.90;99.90;;;;;;5060318;28;20578;-73
2022/11/17 07:13:31;;;;;;;7.43;1.57;;;11.90;99.90;;;;;;5079938;28;20465;-72
2022/11/17 07:16:19;;;;;;;2.67;1.50;;;12.00;99.90;;;;;;5071418;28;20935;-74
2022/11/17 07:19:07;;;;;;;2.63;1.17;;;12.00;99.90;;;;;;5075032;28;20455;-74
2022/11/17 07:21:52;;;;;;;6.30;1.07;;;12.00;99.90;;;;;;5072069;28;20443;-73
2022/11/17 07:24:38;;;;;;;2.70;1.00;;;12.10;99.90;;;;;;5073190;28;20408;-73
2022/11/17 07:27:23;;;;;;;4.37;1.67;;;12.10;99.90;;;;;;5073258;28;20408;-73
2022/11/17 07:30:10;;;;;;;2.77;1.20;;;12.20;99.90;;;;;;5070910;28;20413;-73
2022/11/17 07:32:59;;;;;;;6.73;1.60;;;12.20;99.90;;;;;;5071462;28;20547;-75
2022/11/17 07:35:46;;;;;;;3.50;1.30;;;12.20;99.90;;;;;;5066240;28;20853;-74
2022/11/17 07:38:33;;;;;;;7.63;2.07;;;12.30;99.90;;;;;;5059599;28;21003;-74
2022/11/17 07:41:18;;;;;;;9.83;1.67;;;12.40;99.90;;;;;;5065557;28;20552;-72
2022/11/17 07:44:04;;;;;;;7.83;1.23;;;12.40;99.90;;;;;;5077286;28;20965;-74
2022/11/17 07:46:50;;;;;;;5.73;1.97;;;12.40;99.90;;;;;;5080274;28;20810;-73
2022/11/17 07:49:37;;;;;;;7.40;1.43;;;12.50;99.90;;;;;;5064844;28;20512;-74
2022/11/17 07:52:22;;;;;;;3.83;1.47;;;12.60;99.90;;;;;;5078963;28;20821;-73
2022/11/17 07:55:08;;;;;;;5.73;1.33;;;12.60;99.90;;;;;;5071427;28;20586;-74
2022/11/17 07:57:55;;;;;;;3.53;1.00;;;12.60;99.90;;;;;;5069816;28;20917;-73
2022/11/17 08:00:41;;;;;;;6.57;1.53;;;12.60;99.90;;;;;;5067305;28;20562;-73
2022/11/17 08:03:27;;;;;;;8.27;1.57;;;12.60;99.90;;;;;;5070344;28;20451;-73
2022/11/17 08:06:14;;;;;;;17.03;2.00;;;12.70;99.90;;;;;;5069314;28;20444;-73
2022/11/17 08:08:59;;;;;;;3.00;1.40;;;12.70;99.90;;;;;;5064630;28;20935;-73
2022/11/17 08:11:45;;;;;;;4.07;1.50;;;12.70;99.90;;;;;;5072786;28;20553;-73
2022/11/17 08:14:30;;;;;;;5.53;1.37;;;12.70;99.90;;;;;;5070144;28;20657;-73
2022/11/17 08:17:17;;;;;;;4.00;1.20;;;12.80;99.90;;;;;;5075917;28;20452;-73
2022/11/17 08:20:03;;;;;;;5.13;1.10;;;12.70;99.90;;;;;;5070554;28;21022;-72
2022/11/17 08:25:25;;;;;;;5.00;1.40;;;12.80;99.90;;;;;;5071008;28;20967;-73
2022/11/17 08:28:11;;;;;;;6.83;1.50;;;12.80;99.90;;;;;;5071793;28;20417;-72
2022/11/17 08:30:56;;;;;;;4.80;1.20;;;12.80;99.90;;;;;;5070073;28;20442;-72
2022/11/17 08:33:42;;;;;;;7.70;1.60;;;12.70;99.90;;;;;;5068574;28;20461;-72
2022/11/17 08:36:27;;;;;;;5.20;2.03;;;12.70;99.90;;;;;;5083091;28;20399;-72
2022/11/17 08:39:14;;;;;;;7.97;1.20;;;12.60;99.90;;;;;;5078175;28;20443;-73
2022/11/17 08:42:01;;;;;;;6.00;1.20;;;12.50;99.90;;;;;;5062932;28;20525;-72
2022/11/17 08:44:46;;;;;;;4.43;1.33;;;12.50;99.90;;;;;;5076176;28;20452;-72
2022/11/17 08:47:33;;;;;;;4.40;1.30;;;12.50;99.90;;;;;;5064070;28;20918;-72
2022/11/17 08:50:19;;;;;;;9.10;1.77;;;12.50;99.90;;;;;;5070939;28;20542;-72
2022/11/17 08:53:05;;;;;;;6.53;1.60;;;12.40;99.90;;;;;;5078487;28;20444;-72
2022/11/17 08:55:51;;;;;;;8.27;2.10;;;12.30;99.90;;;;;;5068870;28;20421;-73
2022/11/17 08:58:42;;;;;;;14.83;2.20;;;12.40;99.90;;;;;;5063505;28;20807;-73
2022/11/17 09:01:27;;;;;;;9.40;1.57;;;12.40;99.90;;;;;;5071912;28;20793;-73
2022/11/17 09:04:13;;;;;;;8.13;1.90;;;12.30;99.90;;;;;;5070739;28;20807;-73
2022/11/17 09:06:59;;;;;;;10.03;1.83;;;12.20;99.90;;;;;;5069573;28;20457;-72
2022/11/17 09:09:45;;;;;;;8.13;1.80;;;12.10;99.90;;;;;;5071235;28;20441;-73
2022/11/17 09:12:31;;;;;;;8.93;2.87;;;12.10;99.90;;;;;;5072094;28;20451;-73
2022/11/17 09:15:18;;;;;;;7.90;1.60;;;12.10;99.90;;;;;;5064598;28;20569;-73
2022/11/17 09:18:04;;;;;;;5.97;1.70;;;12.10;99.90;;;;;;5066639;28;20454;-73
2022/11/17 09:20:49;;;;;;;11.20;2.20;;;12.00;99.90;;;;;;5074984;28;20971;-73
2022/11/17 09:23:35;;;;;;;5.87;1.80;;;12.00;99.90;;;;;;5065489;28;20518;-73
2022/11/17 09:26:20;;;;;;;5.17;1.93;;;11.90;99.90;;;;;;5066742;28;20416;-72
2022/11/17 09:29:06;;;;;;;10.83;2.30;;;12.00;99.90;;;;;;5072998;28;20438;-72
2022/11/17 09:31:52;;;;;;;7.60;1.50;;;11.90;99.90;;;;;;5069411;28;20762;-72
2022/11/17 09:34:38;;;;;;;7.03;2.03;;;12.00;99.90;;;;;;5072537;28;20982;-72
2022/11/17 09:37:25;;;;;;;11.53;1.97;;;11.90;99.90;;;;;;5063753;28;20965;-73
2022/11/17 09:40:15;;;;;;;6.20;1.93;;;11.90;99.90;;;;;;5067637;28;20447;-73
2022/11/17 09:43:00;;;;;;;11.97;3.53;;;11.90;99.90;;;;;;5067090;28;20434;-73
2022/11/17 09:45:47;;;;;;;7.77;1.80;;;11.90;99.90;;;;;;5060198;28;20964;-73
2022/11/17 09:48:40;;;;;;;4.03;1.70;;;12.00;99.90;;;;;;5072086;28;20939;-73
2022/11/17 09:51:30;;;;;;;6.63;1.97;;;12.00;99.90;;;;;;5077695;28;20425;-73
2022/11/17 09:54:23;;;;;;;6.23;1.93;;;12.10;99.90;;;;;;5063784;28;20488;-73
2022/11/17 09:57:20;;;;;;;3.30;1.60;;;12.00;99.90;;;;;;5064467;28;20421;-74
2022/11/17 10:00:13;;;;;;;10.17;4.23;;;12.00;99.90;;;;;;5068518;28;20506;-73
2022/11/17 10:02:59;;;;;;;10.70;2.13;;;12.10;99.90;;;;;;5074418;28;20565;-73
2022/11/17 10:05:47;;;;;;;7.43;2.00;;;12.10;99.90;;;;;;5064600;28;20470;-73
2022/11/17 10:08:39;;;;;;;7.80;2.63;;;12.20;99.90;;;;;;5073834;28;20402;-73
2022/11/17 10:11:32;;;;;;;7.73;1.90;;;12.10;99.90;;;;;;5067529;28;20446;-73
2022/11/17 10:14:20;;;;;;;8.43;2.43;;;12.20;99.90;;;;;;5067651;28;20444;-73
2022/11/17 10:17:06;;;;;;;10.10;2.10;;;12.10;99.90;;;;;;5070792;28;20443;-73
2022/11/17 10:19:51;;;;;;;4.97;2.33;;;12.10;99.90;;;;;;5067501;28;20446;-73
2022/11/17 10:22:38;;;;;;;7.97;2.30;;;12.10;99.90;;;;;;5063731;28;20430;-73
2022/11/17 10:25:36;;;;;;;10.50;2.00;;;12.20;99.90;;;;;;5058366;28;20857;-73
2022/11/17 10:28:30;;;;;;;9.13;2.60;;;12.30;99.90;;;;;;5064277;28;20443;-72
2022/11/17 10:31:18;;;;;;;9.17;2.57;;;12.30;99.90;;;;;;5063735;28;20807;-73
2022/11/17 10:34:03;;;;;;;5.73;2.23;;;12.30;99.90;;;;;;5058374;28;20466;-73
2022/11/17 10:36:49;;;;;;;12.33;1.93;;;12.40;99.90;;;;;;5063543;28;20418;-73
2022/11/17 10:39:38;;;;;;;5.47;1.70;;;12.40;99.90;;;;;;5064548;28;20425;-73
2022/11/17 10:42:27;;;;;;;6.17;2.17;;;12.40;99.90;;;;;;5062731;28;20938;-73
2022/11/17 10:45:17;;;;;;;7.77;2.37;;;12.40;99.90;;;;;;5059375;28;21059;-73
2022/11/17 10:48:15;;;;;;;14.27;3.50;;;12.50;99.90;;;;;;5064142;28;21067;-73
2022/11/17 10:51:02;;;;;;;9.20;2.37;;;12.50;99.90;;;;;;5063233;28;20446;-73
2022/11/17 10:54:02;;;;;;;5.70;2.50;;;12.40;99.90;;;;;;5064639;28;20474;-73
2022/11/17 10:56:52;;;;;;;6.20;1.77;;;12.50;99.90;;;;;;5067642;28;20412;-73
2022/11/17 10:59:44;;;;;;;6.73;1.90;;;12.50;99.90;;;;;;5066088;28;20931;-73
2022/11/17 11:02:31;;;;;;;5.73;1.87;;;12.50;99.90;;;;;;5069910;28;20446;-73
2022/11/17 11:05:20;;;;;;;14.73;2.13;;;12.50;99.90;;;;;;5067816;28;20502;-73
2022/11/17 11:08:18;;;;;;;14.73;1.90;;;12.50;99.90;;;;;;5070162;28;20421;-73
2022/11/17 11:11:11;;;;;;;4.80;1.40;;;12.50;99.90;;;;;;5063903;28;20447;-73
2022/11/17 11:14:05;;;;;;;8.10;2.03;;;12.40;99.90;;;;;;5068305;28;20462;-73
2022/11/17 11:16:51;;;;;;;5.40;1.73;;;12.40;99.90;;;;;;5071283;28;20478;-73
2022/11/17 11:19:37;;;;;;;6.17;1.37;;;12.40;99.90;;;;;;5069528;28;20442;-74
2022/11/17 11:22:30;;;;;;;3.93;1.30;;;12.40;99.90;;;;;;5055941;28;20570;-73
2022/11/17 11:25:27;;;;;;;9.00;1.90;;;12.50;99.90;;;;;;5068209;28;20475;-73
2022/11/17 11:28:28;;;;;;;14.27;1.97;;;12.60;99.90;;;;;;5088168;28;20425;-73
2022/11/17 11:31:21;;;;;;;5.70;1.27;;;12.50;99.90;;;;;;5077491;28;20586;-72
2022/11/17 11:34:23;;;;;;;10.23;1.63;;;12.50;99.90;;;;;;5075794;28;20468;-72
2022/11/17 11:37:11;;;;;;;4.97;1.40;;;12.50;99.90;;;;;;5076560;28;20546;-73
2022/11/17 11:40:09;;;;;;;4.80;1.60;;;12.50;99.90;;;;;;5076985;28;20932;-73
2022/11/17 11:42:58;;;;;;;6.57;1.80;;;12.50;99.90;;;;;;5084218;28;20535;-73
2022/11/17 11:45:54;;;;;;;9.20;2.50;;;12.50;99.90;;;;;;5068976;28;20442;-73
2022/11/17 11:48:41;;;;;;;6.27;2.00;;;12.50;99.90;;;;;;5079236;28;20405;-73
2022/11/17 11:51:30;;;;;;;6.67;1.40;;;12.40;99.90;;;;;;5081214;28;20829;-72
2022/11/17 11:54:27;;;;;;;8.77;1.53;;;12.40;99.90;;;;;;5077060;28;20429;-73
2022/11/17 11:57:15;;;;;;;4.03;1.30;;;12.40;99.90;;;;;;5072356;28;20540;-73
2022/11/17 12:00:04;;;;;;;11.00;1.37;;;12.30;99.90;;;;;;5084308;28;20439;-73
2022/11/17 12:02:57;;;;;;;13.60;1.70;;;12.30;99.90;;;;;;5079466;28;20909;-73
2022/11/17 12:06:38;;;;;;;6.50;1.97;;;12.30;99.90;;;;;;5065790;28;20709;-73
2022/11/17 12:09:47;;;;;;;5.97;1.60;;;12.30;99.90;;;;;;5087113;28;20966;-73
2022/11/17 12:12:36;;;;;;;7.00;1.97;;;12.40;99.90;;;;;;5061190;28;20437;-73
2022/11/17 12:15:34;;;;;;;9.17;1.30;;;12.30;99.90;;;;;;5070675;28;20598;-73
2022/11/17 12:18:32;;;;;;;7.77;1.70;;;12.30;99.90;;;;;;5084776;28;20404;-73
2022/11/17 12:21:24;;;;;;;4.33;2.10;;;12.40;99.90;;;;;;5082892;28;20799;-73
2022/11/17 12:24:16;;;;;;;7.67;1.77;;;12.40;99.90;;;;;;5073906;28;20478;-73
2022/11/17 12:27:41;;;;;;;5.17;1.77;;;12.40;99.90;;;;;;5075870;28;20409;-72
2022/11/17 12:30:53;;;;;;;10.53;1.93;;;12.40;99.90;;;;;;5066228;28;20910;-73
2022/11/17 12:34:15;;;;;;;9.07;2.90;;;12.50;99.90;;;;;;5064469;28;20437;-72
2022/11/17 12:37:18;;;;;;;7.70;1.50;;;12.50;99.90;;;;;;5076814;28;20438;-73
2022/11/17 12:40:06;;;;;;;9.47;1.60;;;12.40;99.90;;;;;;5069407;28;20524;-73
2022/11/17 12:43:19;;;;;;;9.50;1.80;;;12.40;99.90;;;;;;5063451;28;20975;-73
2022/11/17 12:46:32;;;;;;;5.27;1.40;;;12.40;99.90;;;;;;5062971;28;20496;-73
2022/11/17 12:49:27;;;;;;;9.37;1.70;;;12.30;99.90;;;;;;5075323;28;21532;-73
2022/11/17 12:52:20;;;;;;;14.63;3.33;;;12.30;99.90;;;;;;5075717;28;20431;-73
2022/11/17 12:55:16;;;;;;;8.80;3.73;;;12.30;99.90;;;;;;5085666;28;20458;-71
2022/11/17 12:58:09;;;;;;;10.57;2.00;;;12.30;99.90;;;;;;5068242;28;20430;-72
2022/11/17 13:01:06;;;;;;;10.07;1.87;;;12.30;99.90;;;;;;5074364;28;20463;-72
2022/11/17 13:03:56;;;;;;;6.10;2.20;;;12.20;99.90;;;;;;5069882;28;21011;-73
2022/11/17 13:07:00;;;;;;;13.67;2.37;;;12.20;99.90;;;;;;5081351;28;20429;-73
2022/11/17 13:09:50;;;;;;;8.10;1.90;;;12.10;99.90;;;;;;5074408;28;20468;-72
2022/11/17 13:12:36;;;;;;;15.13;2.00;;;12.10;99.90;;;;;;5063849;28;20443;-72
2022/11/17 13:15:23;;;;;;;11.10;1.73;;;12.20;99.90;;;;;;5065687;28;20447;-73
2022/11/17 13:18:11;;;;;;;7.83;2.50;;;12.10;99.90;;;;;;5077087;28;20451;-73
2022/11/17 13:20:57;;;;;;;6.40;1.90;;;12.20;99.90;;;;;;5068612;28;20418;-73
2022/11/17 13:23:44;;;;;;;7.93;3.10;;;12.20;99.90;;;;;;5057912;28;21007;-73
2022/11/17 13:26:37;;;;;;;10.57;2.30;;;12.20;99.90;;;;;;5064741;28;20437;-73
2022/11/17 13:29:23;;;;;;;7.50;2.33;;;12.00;99.90;;;;;;5072568;28;20412;-74
2022/11/17 13:32:14;;;;;;;4.93;1.90;;;12.00;99.90;;;;;;5061711;28;20421;-73
2022/11/17 13:35:00;;;;;;;12.27;4.60;;;12.00;99.90;;;;;;5074040;28;20519;-74
2022/11/17 13:38:00;;;;;;;7.37;2.80;;;12.00;99.90;;;;;;5066075;28;20442;-74
2022/11/17 13:40:46;;;;;;;6.13;2.50;;;12.00;99.90;;;;;;5066599;28;20424;-72
2022/11/17 13:43:39;;;;;;;8.57;2.50;;;12.00;99.90;;;;;;5062089;28;20519;-73
2022/11/17 13:46:24;;;;;;;9.60;2.60;;;12.10;99.90;;;;;;5062373;28;20435;-73
2022/11/17 13:49:32;;;;;;;13.30;2.97;;;12.10;99.90;;;;;;5067746;28;20943;-73
2022/11/17 13:52:32;;;;;;;12.70;3.03;;;12.10;99.90;;;;;;5068128;28;20591;-72
2022/11/17 13:55:20;;;;;;;10.53;2.53;;;12.10;99.90;;;;;;5061388;28;20425;-72
2022/11/17 13:58:19;;;;;;;7.97;2.53;;;12.20;99.90;;;;;;5069059;28;20946;-74
2022/11/17 14:01:10;;;;;;;5.77;2.00;;;12.20;99.90;;;;;;5071295;28;20509;-74
2022/11/17 14:04:16;;;;;;;10.90;2.23;;;12.10;99.90;;;;;;5058569;28;20445;-74
2022/11/17 14:07:03;;;;;;;8.13;1.90;;;12.00;99.90;;;;;;5072942;28;20494;-74
2022/11/17 14:09:48;;;;;;;8.47;2.70;;;12.10;99.90;;;;;;5069430;28;20434;-74
2022/11/17 14:12:34;;;;;;;10.57;2.47;;;12.00;99.90;;;;;;5057805;28;20524;-74
2022/11/17 14:15:24;;;;;;;5.20;1.83;;;12.00;99.90;;;;;;5074094;28;20399;-74
2022/11/17 14:18:25;;;;;;;5.20;1.57;;;12.10;99.90;;;;;;5082176;28;20408;-74
2022/11/17 14:21:13;;;;;;;5.10;1.47;;;12.10;99.90;;;;;;5074953;28;20549;-75
2022/11/17 14:24:17;;;;;;;11.07;1.83;;;12.10;99.90;;;;;;5077775;22;20498;-75
2022/11/17 14:27:03;;;;;;;6.27;1.63;;;11.90;99.90;;;;;;5067332;28;20512;-75
2022/11/17 14:29:49;;;;;;;10.10;1.70;;;12.00;99.90;;;;;;5071295;28;20544;-75
2022/11/17 14:32:35;;;;;;;7.00;1.17;;;11.90;99.90;;;;;;5066509;28;20552;-75
2022/11/17 14:35:21;;;;;;;9.03;1.37;;;11.90;99.90;;;;;;5070125;28;20448;-75
2022/11/17 14:38:09;;;;;;;4.63;3.30;;;11.80;99.90;;;;;;5074943;28;20529;-75
2022/11/17 14:40:55;;;;;;;7.30;2.93;;;11.80;99.90;;;;;;5071710;28;20427;-75
2022/11/17 14:43:41;;;;;;;8.70;1.47;;;11.70;99.90;;;;;;5076607;28;20446;-75
2022/11/17 14:46:27;;;;;;;4.03;1.83;;;11.60;99.90;;;;;;5080048;28;20422;-76
2022/11/17 14:49:12;;;;;;;5.60;1.80;;;11.60;99.90;;;;;;5074020;28;20401;-77
2022/11/17 14:52:01;;;;;;;5.27;2.70;;;11.50;99.90;;;;;;5066014;28;20458;-77
2022/11/17 14:54:46;;;;;;;5.17;2.43;;;11.50;99.90;;;;;;5062065;28;20565;-77
2022/11/17 14:57:32;;;;;;;3.30;1.30;;;11.50;99.90;;;;;;5077637;28;20529;-76
2022/11/17 15:00:19;;;;;;;10.13;1.53;;;11.50;99.90;;;;;;5076932;28;20516;-75
2022/11/17 15:03:04;;;;;;;5.70;1.20;;;11.40;99.90;;;;;;5069406;28;20424;-75
2022/11/17 15:05:50;;;;;;;2.90;1.30;;;11.40;99.90;;;;;;5074367;28;21005;-75
2022/11/17 15:08:37;;;;;;;8.43;1.60;;;11.40;99.90;;;;;;5070786;28;20447;-75
2022/11/17 15:11:23;;;;;;;12.70;9.30;;;11.40;99.90;;;;;;5065776;28;20440;-77